Historyczne dane pomiarowe

Dodano dane terminowe – wersja testowa.

Dane z okresu 1951-2019

Wersja bazy: 1.34 [2019-03-16, lista zmian], aktualizacja planowana na 2019-04-15

Dane meteo z obszaru Polski uzyskane na podstawie danych udostępnionych przez Instytut Meteorologii i Gospodarki Wodnej – Państwowy Instytut Badawczy.

 

Wybierz Datę:    

       

TemperaturaWilgotnośćZachmurzenieWiatrCiśnienieWidzialnośćZjawiska
 Data    tng td wb rh cc ccl cl cm ch dir g1 g2 mslp ppp      
1999-06-26 00:00:00 6.7--- 6.7 6.7100wxwx2wx--1018.9 996.1 0.0---wx
1999-06-26 01:00:00 7.4--- 7.4 7.4100wxwxwx0wx--1018.7 995.9----wxw1
1999-06-26 02:00:00 7.5--- 7.5 7.5100wxwxwx0wx--1018.4 995.7----wxw1
1999-06-26 03:00:00 7.1--- 7.1 7.1100wxwxwx0wx--1018.2 995.4----wxw1
1999-06-26 04:00:00 7.8--- 7.8 7.8100wxwxwx0wx--1018.6 995.9----wxw1
1999-06-26 05:00:00 9.8--- 9.4 9.698wxwxwx0wx--1018.5 995.9----wxw1
1999-06-26 06:00:00 11.3--- 10.2 10.793wxwxwx2wx--1018.3 995.9 0.0---wxw1
1999-06-26 07:00:00 13.0--- 11.2 12.089wxwxwx3wx--1018.4 996.1----wx
1999-06-26 08:00:00 15.2--- 9.4 12.068wxwxwx2wx--1018.1 996.0----wx
1999-06-26 09:00:00 17.0--- 10.7 13.467wxwxwx2wx--1018.0 996.0----wx
1999-06-26 10:00:00 17.4--- 9.6 13.060wxwxwx3wx--1018.0 996.0----wx
1999-06-26 11:00:00 18.4--- 10.4 13.860wxwxwx3wx--1017.9 996.0----wx
1999-06-26 12:00:00 19.1--- 9.0 13.452wxwxwx3wx--1017.8 996.0 0.0---wx
1999-06-26 13:00:00 19.0--- 9.9 13.856wxwxwx3wx--1017.9 996.0----wx
1999-06-26 14:00:00 19.4--- 10.0 14.054wxwxwx3wx--1017.3 995.5----wx
1999-06-26 15:00:00 19.8--- 9.6 14.052wxwxwx3wx--1017.2 995.4----wx
1999-06-26 16:00:00 20.0--- 10.7 14.655wxwxwx3wx--1017.2 995.4----wx
1999-06-26 17:00:00 19.0--- 9.9 13.856wxwxwx2wx--1017.2 995.4----wx
1999-06-26 18:00:00 18.4--- 12.7 15.069wxwxwx2wx--1017.1 995.2 0.0---wx
1999-06-26 19:00:00 15.2--- 12.5 13.684wxwx0wx--1017.7 995.6----wx
1999-06-26 20:00:00 12.6--- 10.8 11.689wxwx0wx--1018.4 996.1----wx
1999-06-26 21:00:00 12.0--- 10.2 11.089wxwx0wx--1018.4 996.0----wx
1999-06-26 22:00:00 11.4--- 9.8 10.590wxwx0wx--1018.6 996.2----wx
1999-06-26 23:00:00 10.2--- 9.3 9.794wxwx0wx--1018.7 996.2----wx

 

Źródłem pochodzenia danych jest Instytut Meteorologii i Gospodarki Wodnej – Państwowy Instytut Badawczy. Dane Instytutu Meteorologii i Gospodarki Wodnej – Państwowego Instytutu Badawczego zostały przetworzone.

Dane źródłowe można odnaleźć na stronie https://dane.imgw.pl